58.9°F
Current conditions from King Hill
Updated every 5 minutes
 
  Monday September 26, 2016

Observations for Westford

Westford

44° 37' 39"N, 73° 02' 29"W, Elevation 850 ft.
Eastern Time

Hourly observations for the last 72 hours

Date Time Temperature (F) Humi-
dity

(%)
Wind
(mph)
Pressure Rain (in) Sun
(W/m2)
UV ET
(in)
Air Dew 6 Hour 1 Hr 3 Hr 6 Hr Day
Alt
(in)
Sea
Level

(mb)
Max Min
26 16:00 59.6 39.9 48 SW 4 G 11 29.99 1015.5 0.00 90 0.0 0.075
26 15:00 63.5 41.8 45 SSW 2 G 12 30.02 1016.6 0.00 427 0.0 0.067
26 14:00 64.1 44.0 64.2 34.8 48 SSW 4 G 12 30.04 1017.3 0.00 610 0.0 0.054
26 13:00 62.5 44.1 51 WSW 5 G 13 30.07 1018.5 0.00 619 0.0 0.042
26 12:00 59.2 41.6 52 SSW 3 G 14 30.10 1019.3 0.00 547 0.0 0.029
26 11:00 56.6 43.7 62 SSW 0 G 12 30.13 1020.3 0.00 504 0.0 0.017
26 10:00 52.3 45.0 76 SSW 0 G 7 30.14 1020.6 0.00 424 0.0 0.008
26 09:00 44.2 43.7 98 Calm 30.16 1021.2 0.00 283 0.0 0.002
26 08:00 34.8 34.0 35.2 32.8 97 Calm 30.16 1021.3 0.00 21 0.0 0.000
26 07:00 33.0 32.2 97 Calm 30.16 1021.4 0.00 11 0.0 0.000
26 06:00 33.4 32.6 97 Calm 30.17 1021.5 0.00 0 0.0 0.000
26 05:00 33.5 32.7 97 Calm 30.16 1021.4 0.00 0 0.0 0.000
26 04:00 33.8 33.0 97 Calm 30.16 1021.4 0.00 0 0.0 0.000
26 03:00 34.3 33.3 96 Calm 30.16 1021.3 0.00 0 0.0 0.000
26 02:00 35.2 34.2 39.9 35.2 96 Calm 30.17 1021.7 0.00 0 0.0 0.000
26 01:00 36.4 35.4 96 Calm 30.17 1021.7 0.00 0 0.0 0.000
26 00:00 36.4 35.4 96 Calm 30.17 1021.7 0.00 0 0.0 0.078
25 23:00 36.8 35.5 95 Calm 30.17 1021.8 0.00 0 0.0 0.078
25 22:00 37.3 36.0 95 Calm 30.16 1021.4 0.00 0 0.0 0.078
25 21:00 38.4 36.6 93 Calm 30.16 1021.4 0.00 0 0.0 0.078
25 20:00 39.9 37.8 59.7 39.9 92 Calm 30.15 1021.0 0.00 0 0.0 0.078
25 19:00 43.7 39.8 86 Calm 30.14 1020.6 0.00 0 0.0 0.078
25 18:00 54.0 41.7 63 Calm 30.13 1020.2 0.00 21 0.0 0.075
25 17:00 58.5 41.4 53 Calm 30.12 1020.1 0.00 218 0.0 0.069
25 16:00 58.7 41.1 52 NW 0 G 7 30.13 1020.2 0.00 362 0.0 0.060
25 15:00 59.3 41.2 51 NW 1 G 8 30.13 1020.3 0.00 482 0.0 0.049
25 14:00 57.2 42.6 57.4 40.2 58 NW 1 G 12 30.14 1020.6 0.00 563 0.0 0.036
25 13:00 55.3 42.1 61 W 6 G 11 30.15 1021.1 0.00 691 0.0 0.025
25 12:00 55.4 43.4 64 NNW 0 G 8 30.16 1021.3 0.00 617 0.0 0.025
25 11:00 52.6 43.1 70 NW 2 G 10 30.16 1021.5 0.00 664 0.0 0.014
25 10:00 51.6 44.3 76 NW 1 G 6 30.16 1021.3 0.00 441 0.0 0.007
25 09:00 46.3 43.2 89 WNW 2 G 10 30.16 1021.2 0.00 74 0.0 0.002
25 08:00 40.2 39.2 40.2 36.6 96 WNW 1 G 5 30.15 1021.1 0.00 21 0.0 0.000
25 07:00 38.6 37.3 95 Calm 30.15 1021.0 0.00 9 0.0 0.000
25 06:00 39.2 37.9 95 Calm 30.15 1021.0 0.00 0 0.0 0.000
25 05:00 39.0 37.4 94 Calm 30.14 1020.7 0.00 0 0.0 0.000
25 04:00 40.0 37.6 91 Calm 30.13 1020.4 0.00 0 0.0 0.000
25 03:00 38.8 36.4 91 Calm 30.13 1020.4 0.00 0 0.0 0.000
25 02:00 36.8 34.4 48.5 36.8 91 Calm 30.14 1020.6 0.00 0 0.0 0.000
25 01:00 39.8 36.3 87 Calm 30.13 1020.5 0.00 0 0.0 0.000
25 00:00 42.7 37.0 80 Calm 30.13 1020.2 0.00 0 0.0 0.089
24 23:00 43.7 37.0 77 NE 0 G 1 30.13 1020.4 0.00 0 0.0 0.088
24 22:00 45.1 38.7 78 Calm 30.12 1020.1 0.00 0 0.0 0.087
24 21:00 47.0 40.8 79 Calm 30.12 1019.9 0.00 0 0.0 0.086
24 20:00 48.5 40.2 62.5 48.4 73 NW 0 G 6 30.10 1019.5 0.00 0 0.0 0.085
24 19:00 51.0 41.6 70 NW 0 G 8 30.09 1018.9 0.00 0 0.0 0.084
24 18:00 53.5 40.8 62 WNW 1 G 10 30.08 1018.7 0.00 23 0.0 0.081
24 17:00 60.9 43.7 53 W 6 G 12 30.07 1018.4 0.00 236 0.0 0.081
24 16:00 61.7 45.4 55 W 4 G 10 30.07 1018.4 0.00 448 0.0 0.075
24 15:00 58.5 42.4 55 NW 3 G 16 30.09 1019.0 0.00 262 0.0 0.065
24 14:00 61.8 43.0 62.3 42.1 50 WNW 5 G 15 30.11 1019.6 0.00 209 0.0 0.054
24 13:00 59.8 45.5 59 WNW 1 G 10 30.13 1020.3 0.00 612 0.0 0.042
24 12:00 57.2 47.1 69 W 1 G 19 30.15 1021.0 0.00 585 0.0 0.029
24 11:00 56.9 51.1 81 WNW 0 G 5 30.16 1021.2 0.00 527 0.0 0.017
24 10:00 52.3 50.0 92 N 0 G 6 30.16 1021.4 0.00 427 0.0 0.008
24 09:00 47.8 47.3 98 Calm 30.16 1021.2 0.00 279 0.0 0.002
24 08:00 42.3 41.8 42.8 39.4 98 Calm 30.14 1020.8 0.00 25 0.0 0.000
24 07:00 40.2 39.7 98 Calm 30.14 1020.5 0.00 9 0.0 0.000
24 06:00 41.9 41.4 98 Calm 30.13 1020.3 0.00 0 0.0 0.000
24 05:00 40.0 39.2 97 Calm 30.12 1020.0 0.00 0 0.0 0.000
24 04:00 41.7 41.2 98 Calm 30.10 1019.3 0.00 0 0.0 0.000
24 03:00 39.8 39.0 97 Calm 30.10 1019.3 0.00 0 0.0 0.000
24 02:00 41.5 40.7 50.5 41.5 97 Calm 30.09 1019.0 0.00 0 0.0 0.000
24 01:00 43.1 42.3 97 Calm 30.10 1019.3 0.00 0 0.0 0.000
24 00:00 46.9 46.1 97 Calm 30.10 1019.4 0.72 0 0.0 0.000
23 23:00 47.4 46.6 97 Calm 30.10 1019.4 0.72 0 0.0 0.020
23 22:00 46.3 45.5 97 Calm 30.09 1018.9 0.72 0 0.0 0.020
23 21:00 47.4 46.3 96 Calm 30.08 1018.7 0.72 0 0.0 0.020
23 20:00 50.5 49.4 55.5 50.5 96 Calm 30.08 1018.5 0.72 0 0.0 0.020
23 19:00 51.6 50.2 95 Calm 30.07 1018.2 0.72 0 0.0 0.020
23 18:00 53.5 51.5 93 Calm 30.06 1018.0 0.72 26 0.0 0.020
23 17:00 54.5 51.3 89 Calm 30.06 1017.9 0.72 63 0.0 0.019

Data generated by WxSolution Version 1.8.8.10, Build 2016.08.21.


 
 
Current Radar Loop:

Copyright © WestfordWeather.net 2007-2016. All rights reserved.